sensor_id;sensor_type;location;lat;lon;timestamp;P1;durP1;ratioP1;P2;durP2;ratioP2
19030;SDS011;9648;51.130;13.978;2023-11-21T00:02:10;2.37;;;1.00;;
19030;SDS011;9648;51.130;13.978;2023-11-21T00:05:13;3.13;;;1.00;;
19030;SDS011;9648;51.130;13.978;2023-11-21T00:08:16;1.13;;;0.97;;
19030;SDS011;9648;51.130;13.978;2023-11-21T00:11:17;1.50;;;1.20;;
19030;SDS011;9648;51.130;13.978;2023-11-21T00:14:19;1.33;;;0.90;;
19030;SDS011;9648;51.130;13.978;2023-11-21T00:17:20;2.57;;;0.80;;
19030;SDS011;9648;51.130;13.978;2023-11-21T00:20:23;1.63;;;1.10;;
19030;SDS011;9648;51.130;13.978;2023-11-21T00:23:25;2.30;;;1.20;;
19030;SDS011;9648;51.130;13.978;2023-11-21T00:26:26;1.43;;;1.03;;
19030;SDS011;9648;51.130;13.978;2023-11-21T00:29:28;1.60;;;1.13;;
19030;SDS011;9648;51.130;13.978;2023-11-21T00:32:29;2.07;;;1.03;;
19030;SDS011;9648;51.130;13.978;2023-11-21T00:35:32;3.00;;;1.00;;
19030;SDS011;9648;51.130;13.978;2023-11-21T00:38:33;2.30;;;1.47;;
19030;SDS011;9648;51.130;13.978;2023-11-21T00:41:35;1.50;;;1.00;;
19030;SDS011;9648;51.130;13.978;2023-11-21T00:44:39;2.83;;;1.43;;
19030;SDS011;9648;51.130;13.978;2023-11-21T00:47:41;1.10;;;0.80;;
19030;SDS011;9648;51.130;13.978;2023-11-21T00:50:44;1.20;;;1.00;;
19030;SDS011;9648;51.130;13.978;2023-11-21T00:53:46;2.90;;;1.00;;
19030;SDS011;9648;51.130;13.978;2023-11-21T00:56:48;2.53;;;1.30;;
19030;SDS011;9648;51.130;13.978;2023-11-21T00:59:50;2.20;;;1.00;;
19030;SDS011;9648;51.130;13.978;2023-11-21T01:02:51;1.40;;;0.93;;
19030;SDS011;9648;51.130;13.978;2023-11-21T01:05:54;1.43;;;1.10;;
19030;SDS011;9648;51.130;13.978;2023-11-21T01:08:56;1.00;;;0.90;;
19030;SDS011;9648;51.130;13.978;2023-11-21T01:11:57;1.80;;;1.30;;
19030;SDS011;9648;51.130;13.978;2023-11-21T01:14:59;1.87;;;1.10;;
19030;SDS011;9648;51.130;13.978;2023-11-21T01:18:01;2.07;;;1.13;;
19030;SDS011;9648;51.130;13.978;2023-11-21T01:21:05;1.97;;;1.30;;
19030;SDS011;9648;51.130;13.978;2023-11-21T01:24:07;2.03;;;1.30;;
19030;SDS011;9648;51.130;13.978;2023-11-21T01:27:09;4.60;;;1.67;;
19030;SDS011;9648;51.130;13.978;2023-11-21T01:30:11;3.70;;;1.23;;
19030;SDS011;9648;51.130;13.978;2023-11-21T01:33:12;2.13;;;1.27;;
19030;SDS011;9648;51.130;13.978;2023-11-21T01:36:17;1.73;;;1.27;;
19030;SDS011;9648;51.130;13.978;2023-11-21T01:39:18;3.40;;;1.30;;
19030;SDS011;9648;51.130;13.978;2023-11-21T01:42:23;2.70;;;1.37;;
19030;SDS011;9648;51.130;13.978;2023-11-21T01:45:25;1.67;;;1.20;;
19030;SDS011;9648;51.130;13.978;2023-11-21T01:48:27;3.37;;;1.40;;
19030;SDS011;9648;51.130;13.978;2023-11-21T01:51:30;3.80;;;1.30;;
19030;SDS011;9648;51.130;13.978;2023-11-21T01:54:32;3.37;;;1.30;;
19030;SDS011;9648;51.130;13.978;2023-11-21T01:57:34;3.50;;;1.60;;
19030;SDS011;9648;51.130;13.978;2023-11-21T02:00:37;1.83;;;1.40;;
19030;SDS011;9648;51.130;13.978;2023-11-21T02:03:39;3.80;;;2.33;;
19030;SDS011;9648;51.130;13.978;2023-11-21T02:06:42;6.70;;;3.50;;
19030;SDS011;9648;51.130;13.978;2023-11-21T02:09:43;11.17;;;4.53;;
19030;SDS011;9648;51.130;13.978;2023-11-21T02:12:45;16.77;;;6.20;;
19030;SDS011;9648;51.130;13.978;2023-11-21T02:15:47;16.13;;;7.20;;
19030;SDS011;9648;51.130;13.978;2023-11-21T02:18:50;15.67;;;6.80;;
19030;SDS011;9648;51.130;13.978;2023-11-21T02:21:54;9.67;;;5.17;;
19030;SDS011;9648;51.130;13.978;2023-11-21T02:24:59;6.13;;;3.40;;
19030;SDS011;9648;51.130;13.978;2023-11-21T02:28:01;5.07;;;2.40;;
19030;SDS011;9648;51.130;13.978;2023-11-21T02:31:04;5.07;;;2.27;;
19030;SDS011;9648;51.130;13.978;2023-11-21T02:34:05;2.27;;;1.80;;
19030;SDS011;9648;51.130;13.978;2023-11-21T02:37:07;3.17;;;1.70;;
19030;SDS011;9648;51.130;13.978;2023-11-21T02:40:10;2.57;;;1.60;;
19030;SDS011;9648;51.130;13.978;2023-11-21T02:43:13;2.50;;;1.60;;
19030;SDS011;9648;51.130;13.978;2023-11-21T02:46:14;1.77;;;1.23;;
19030;SDS011;9648;51.130;13.978;2023-11-21T02:49:17;1.97;;;1.30;;
19030;SDS011;9648;51.130;13.978;2023-11-21T02:52:18;1.40;;;1.10;;
19030;SDS011;9648;51.130;13.978;2023-11-21T02:55:21;4.53;;;1.20;;
19030;SDS011;9648;51.130;13.978;2023-11-21T02:58:25;1.67;;;1.27;;
19030;SDS011;9648;51.130;13.978;2023-11-21T03:01:26;1.57;;;1.00;;
19030;SDS011;9648;51.130;13.978;2023-11-21T03:04:28;4.27;;;1.20;;
19030;SDS011;9648;51.130;13.978;2023-11-21T03:07:32;2.03;;;1.37;;
19030;SDS011;9648;51.130;13.978;2023-11-21T03:10:35;2.73;;;1.13;;
19030;SDS011;9648;51.130;13.978;2023-11-21T03:13:37;2.33;;;1.37;;
19030;SDS011;9648;51.130;13.978;2023-11-21T03:16:39;3.03;;;1.23;;
19030;SDS011;9648;51.130;13.978;2023-11-21T03:19:41;2.07;;;1.10;;
19030;SDS011;9648;51.130;13.978;2023-11-21T03:22:42;1.63;;;1.20;;
19030;SDS011;9648;51.130;13.978;2023-11-21T03:25:46;2.70;;;1.40;;
19030;SDS011;9648;51.130;13.978;2023-11-21T03:28:47;2.43;;;1.30;;
19030;SDS011;9648;51.130;13.978;2023-11-21T03:31:49;2.33;;;1.30;;
19030;SDS011;9648;51.130;13.978;2023-11-21T03:34:55;1.90;;;1.33;;
19030;SDS011;9648;51.130;13.978;2023-11-21T03:37:58;2.40;;;1.60;;
19030;SDS011;9648;51.130;13.978;2023-11-21T03:41:00;2.90;;;1.83;;
19030;SDS011;9648;51.130;13.978;2023-11-21T03:44:02;4.23;;;1.73;;
19030;SDS011;9648;51.130;13.978;2023-11-21T03:47:04;3.37;;;2.00;;
19030;SDS011;9648;51.130;13.978;2023-11-21T03:50:06;4.60;;;1.63;;
19030;SDS011;9648;51.130;13.978;2023-11-21T03:53:08;3.50;;;1.60;;
19030;SDS011;9648;51.130;13.978;2023-11-21T03:56:11;3.40;;;1.70;;
19030;SDS011;9648;51.130;13.978;2023-11-21T03:59:13;3.23;;;1.60;;
19030;SDS011;9648;51.130;13.978;2023-11-21T04:02:14;2.73;;;1.50;;
19030;SDS011;9648;51.130;13.978;2023-11-21T04:05:17;2.13;;;1.40;;
19030;SDS011;9648;51.130;13.978;2023-11-21T04:08:19;4.80;;;1.80;;
19030;SDS011;9648;51.130;13.978;2023-11-21T08:12:11;7.27;;;3.57;;
19030;SDS011;9648;51.130;13.978;2023-11-21T08:15:42;8.50;;;3.90;;
19030;SDS011;9648;51.130;13.978;2023-11-21T08:18:46;8.43;;;3.80;;
19030;SDS011;9648;51.130;13.978;2023-11-21T08:21:48;8.82;;;4.57;;
19030;SDS011;9648;51.130;13.978;2023-11-21T08:24:49;8.03;;;4.83;;
19030;SDS011;9648;51.130;13.978;2023-11-21T08:27:52;11.70;;;5.22;;
19030;SDS011;9648;51.130;13.978;2023-11-21T08:30:54;7.73;;;3.73;;
19030;SDS011;9648;51.130;13.978;2023-11-21T08:33:55;9.17;;;3.63;;
19030;SDS011;9648;51.130;13.978;2023-11-21T08:36:57;13.30;;;4.40;;
19030;SDS011;9648;51.130;13.978;2023-11-21T08:39:59;6.63;;;3.33;;
19030;SDS011;9648;51.130;13.978;2023-11-21T08:43:03;8.97;;;3.67;;
19030;SDS011;9648;51.130;13.978;2023-11-21T08:46:05;5.03;;;2.90;;
19030;SDS011;9648;51.130;13.978;2023-11-21T08:49:08;5.73;;;2.80;;
19030;SDS011;9648;51.130;13.978;2023-11-21T08:52:10;5.27;;;2.80;;
19030;SDS011;9648;51.130;13.978;2023-11-21T08:55:12;5.73;;;3.03;;
19030;SDS011;9648;51.130;13.978;2023-11-21T08:58:15;3.57;;;2.50;;
19030;SDS011;9648;51.130;13.978;2023-11-21T09:01:17;4.80;;;2.87;;
19030;SDS011;9648;51.130;13.978;2023-11-21T09:04:19;4.43;;;2.70;;
19030;SDS011;9648;51.130;13.978;2023-11-21T09:07:20;6.37;;;3.20;;
19030;SDS011;9648;51.130;13.978;2023-11-21T09:10:22;4.97;;;3.20;;
19030;SDS011;9648;51.130;13.978;2023-11-21T09:13:26;5.97;;;3.37;;
19030;SDS011;9648;51.130;13.978;2023-11-21T09:16:29;4.77;;;2.90;;
19030;SDS011;9648;51.130;13.978;2023-11-21T09:19:31;8.10;;;3.27;;
19030;SDS011;9648;51.130;13.978;2023-11-21T09:22:33;5.20;;;3.13;;
19030;SDS011;9648;51.130;13.978;2023-11-21T09:25:35;3.63;;;2.47;;
19030;SDS011;9648;51.130;13.978;2023-11-21T09:28:38;5.30;;;2.80;;
19030;SDS011;9648;51.130;13.978;2023-11-21T09:31:41;4.73;;;2.87;;
19030;SDS011;9648;51.130;13.978;2023-11-21T09:34:44;4.63;;;3.23;;
19030;SDS011;9648;51.130;13.978;2023-11-21T09:37:45;5.73;;;2.53;;
19030;SDS011;9648;51.130;13.978;2023-11-21T09:40:47;2.83;;;1.50;;
19030;SDS011;9648;51.130;13.978;2023-11-21T09:43:50;2.70;;;1.70;;
19030;SDS011;9648;51.130;13.978;2023-11-21T09:46:56;3.87;;;2.20;;
19030;SDS011;9648;51.130;13.978;2023-11-21T09:50:01;3.33;;;2.27;;
19030;SDS011;9648;51.130;13.978;2023-11-21T09:53:05;5.80;;;3.40;;
19030;SDS011;9648;51.130;13.978;2023-11-21T09:56:14;5.20;;;3.27;;
19030;SDS011;9648;51.130;13.978;2023-11-21T09:59:20;5.17;;;3.17;;
19030;SDS011;9648;51.130;13.978;2023-11-21T10:02:22;7.57;;;3.93;;
19030;SDS011;9648;51.130;13.978;2023-11-21T10:05:28;4.57;;;3.30;;
19030;SDS011;9648;51.130;13.978;2023-11-21T10:08:29;5.07;;;3.17;;
19030;SDS011;9648;51.130;13.978;2023-11-21T10:11:32;6.57;;;3.60;;
19030;SDS011;9648;51.130;13.978;2023-11-21T10:14:35;6.83;;;4.07;;
19030;SDS011;9648;51.130;13.978;2023-11-21T10:17:40;7.93;;;4.17;;
19030;SDS011;9648;51.130;13.978;2023-11-21T10:20:45;12.50;;;5.30;;
19030;SDS011;9648;51.130;13.978;2023-11-21T10:23:52;9.97;;;4.80;;
19030;SDS011;9648;51.130;13.978;2023-11-21T10:26:54;6.77;;;4.37;;
19030;SDS011;9648;51.130;13.978;2023-11-21T10:29:57;9.20;;;5.03;;
19030;SDS011;9648;51.130;13.978;2023-11-21T10:32:59;7.67;;;4.50;;
19030;SDS011;9648;51.130;13.978;2023-11-21T10:36:02;10.23;;;5.00;;
19030;SDS011;9648;51.130;13.978;2023-11-21T10:39:04;8.20;;;4.83;;
19030;SDS011;9648;51.130;13.978;2023-11-21T10:42:08;9.67;;;5.13;;
19030;SDS011;9648;51.130;13.978;2023-11-21T10:45:15;8.43;;;4.80;;
19030;SDS011;9648;51.130;13.978;2023-11-21T10:48:26;6.70;;;4.50;;
19030;SDS011;9648;51.130;13.978;2023-11-21T10:51:29;8.87;;;4.83;;
19030;SDS011;9648;51.130;13.978;2023-11-21T10:54:33;8.10;;;5.20;;
19030;SDS011;9648;51.130;13.978;2023-11-21T10:57:36;18.87;;;6.90;;
19030;SDS011;9648;51.130;13.978;2023-11-21T11:00:40;10.47;;;6.27;;
19030;SDS011;9648;51.130;13.978;2023-11-21T11:03:43;10.43;;;6.07;;
19030;SDS011;9648;51.130;13.978;2023-11-21T11:06:47;8.37;;;5.50;;
19030;SDS011;9648;51.130;13.978;2023-11-21T11:09:52;19.60;;;5.73;;
19030;SDS011;9648;51.130;13.978;2023-11-21T11:12:55;9.03;;;5.03;;
19030;SDS011;9648;51.130;13.978;2023-11-21T11:15:59;12.40;;;5.37;;
19030;SDS011;9648;51.130;13.978;2023-11-21T11:23:07;27.33;;;6.47;;
19030;SDS011;9648;51.130;13.978;2023-11-21T11:26:17;11.23;;;6.37;;
19030;SDS011;9648;51.130;13.978;2023-11-21T11:29:33;11.13;;;6.03;;
19030;SDS011;9648;51.130;13.978;2023-11-21T11:32:48;10.77;;;6.00;;
19030;SDS011;9648;51.130;13.978;2023-11-21T11:35:57;10.53;;;6.37;;
19030;SDS011;9648;51.130;13.978;2023-11-21T11:39:02;11.17;;;7.07;;
19030;SDS011;9648;51.130;13.978;2023-11-21T11:42:06;12.97;;;6.53;;
19030;SDS011;9648;51.130;13.978;2023-11-21T11:45:17;14.23;;;6.53;;
19030;SDS011;9648;51.130;13.978;2023-11-21T11:48:22;10.60;;;6.30;;
19030;SDS011;9648;51.130;13.978;2023-11-21T11:51:24;13.50;;;6.23;;
19030;SDS011;9648;51.130;13.978;2023-11-21T11:54:34;9.20;;;5.20;;
19030;SDS011;9648;51.130;13.978;2023-11-21T11:57:36;9.37;;;5.33;;
19030;SDS011;9648;51.130;13.978;2023-11-21T12:00:42;11.53;;;5.50;;
19030;SDS011;9648;51.130;13.978;2023-11-21T12:03:49;10.43;;;5.60;;
19030;SDS011;9648;51.130;13.978;2023-11-21T12:07:38;9.97;;;5.27;;
19030;SDS011;9648;51.130;13.978;2023-11-21T12:10:42;10.77;;;5.53;;
19030;SDS011;9648;51.130;13.978;2023-11-21T12:13:44;10.33;;;5.80;;
19030;SDS011;9648;51.130;13.978;2023-11-21T12:16:46;23.63;;;6.63;;
19030;SDS011;9648;51.130;13.978;2023-11-21T12:19:49;17.13;;;6.73;;
19030;SDS011;9648;51.130;13.978;2023-11-21T12:22:53;13.27;;;6.37;;
19030;SDS011;9648;51.130;13.978;2023-11-21T12:25:55;17.50;;;7.50;;
19030;SDS011;9648;51.130;13.978;2023-11-21T12:28:58;16.47;;;8.17;;
19030;SDS011;9648;51.130;13.978;2023-11-21T12:31:59;14.50;;;7.00;;
19030;SDS011;9648;51.130;13.978;2023-11-21T12:35:02;17.80;;;8.50;;
19030;SDS011;9648;51.130;13.978;2023-11-21T12:38:06;16.93;;;7.40;;
19030;SDS011;9648;51.130;13.978;2023-11-21T12:41:09;19.00;;;8.33;;
19030;SDS011;9648;51.130;13.978;2023-11-21T12:44:12;17.30;;;7.73;;
19030;SDS011;9648;51.130;13.978;2023-11-21T12:47:16;19.70;;;7.67;;
19030;SDS011;9648;51.130;13.978;2023-11-21T12:50:20;16.00;;;6.97;;
19030;SDS011;9648;51.130;13.978;2023-11-21T12:53:23;13.33;;;5.97;;
19030;SDS011;9648;51.130;13.978;2023-11-21T12:56:25;15.23;;;6.87;;
19030;SDS011;9648;51.130;13.978;2023-11-21T12:59:27;14.50;;;6.43;;
19030;SDS011;9648;51.130;13.978;2023-11-21T13:02:30;12.37;;;6.23;;
19030;SDS011;9648;51.130;13.978;2023-11-21T13:05:37;12.30;;;5.87;;
19030;SDS011;9648;51.130;13.978;2023-11-21T13:08:39;18.53;;;7.60;;
19030;SDS011;9648;51.130;13.978;2023-11-21T13:11:41;16.10;;;7.00;;
19030;SDS011;9648;51.130;13.978;2023-11-21T13:14:45;19.00;;;8.53;;
19030;SDS011;9648;51.130;13.978;2023-11-21T13:17:47;16.73;;;8.27;;
19030;SDS011;9648;51.130;13.978;2023-11-21T13:20:52;17.27;;;7.80;;
19030;SDS011;9648;51.130;13.978;2023-11-21T13:23:53;14.87;;;7.20;;
19030;SDS011;9648;51.130;13.978;2023-11-21T13:26:56;15.23;;;7.03;;
19030;SDS011;9648;51.130;13.978;2023-11-21T13:29:58;17.93;;;7.30;;
19030;SDS011;9648;51.130;13.978;2023-11-21T13:33:00;19.40;;;8.00;;
19030;SDS011;9648;51.130;13.978;2023-11-21T13:36:04;24.60;;;9.60;;
19030;SDS011;9648;51.130;13.978;2023-11-21T13:39:08;22.60;;;9.17;;
19030;SDS011;9648;51.130;13.978;2023-11-21T13:42:15;26.20;;;11.27;;
19030;SDS011;9648;51.130;13.978;2023-11-21T13:45:17;26.63;;;11.17;;
19030;SDS011;9648;51.130;13.978;2023-11-21T13:48:20;27.10;;;10.43;;
19030;SDS011;9648;51.130;13.978;2023-11-21T13:51:29;25.43;;;10.63;;
19030;SDS011;9648;51.130;13.978;2023-11-21T13:54:38;25.77;;;9.87;;
19030;SDS011;9648;51.130;13.978;2023-11-21T13:57:39;26.87;;;9.60;;
19030;SDS011;9648;51.130;13.978;2023-11-21T14:00:44;28.20;;;10.37;;
19030;SDS011;9648;51.130;13.978;2023-11-21T14:03:46;25.13;;;9.97;;
19030;SDS011;9648;51.130;13.978;2023-11-21T14:06:54;31.83;;;10.93;;
19030;SDS011;9648;51.130;13.978;2023-11-21T14:09:56;29.20;;;10.50;;
19030;SDS011;9648;51.130;13.978;2023-11-21T14:12:58;24.80;;;9.37;;
19030;SDS011;9648;51.130;13.978;2023-11-21T14:16:00;26.90;;;9.23;;
19030;SDS011;9648;51.130;13.978;2023-11-21T14:19:02;22.40;;;8.93;;
19030;SDS011;9648;51.130;13.978;2023-11-21T14:22:17;19.97;;;7.67;;
19030;SDS011;9648;51.130;13.978;2023-11-21T14:25:18;16.47;;;7.27;;
19030;SDS011;9648;51.130;13.978;2023-11-21T14:28:22;20.57;;;8.30;;
19030;SDS011;9648;51.130;13.978;2023-11-21T14:31:24;15.73;;;7.17;;
19030;SDS011;9648;51.130;13.978;2023-11-21T14:34:27;13.37;;;6.20;;
19030;SDS011;9648;51.130;13.978;2023-11-21T14:37:31;14.30;;;6.80;;
19030;SDS011;9648;51.130;13.978;2023-11-21T14:40:33;15.10;;;7.17;;
19030;SDS011;9648;51.130;13.978;2023-11-21T14:43:36;13.93;;;7.07;;
19030;SDS011;9648;51.130;13.978;2023-11-21T14:46:39;13.47;;;5.90;;
19030;SDS011;9648;51.130;13.978;2023-11-21T14:49:44;12.13;;;5.53;;
19030;SDS011;9648;51.130;13.978;2023-11-21T14:52:54;13.53;;;5.63;;
19030;SDS011;9648;51.130;13.978;2023-11-21T14:55:59;11.33;;;5.17;;
19030;SDS011;9648;51.130;13.978;2023-11-21T14:59:04;12.10;;;4.90;;
19030;SDS011;9648;51.130;13.978;2023-11-21T15:02:12;13.40;;;5.07;;
19030;SDS011;9648;51.130;13.978;2023-11-21T15:08:50;9.30;;;4.30;;
19030;SDS011;9648;51.130;13.978;2023-11-21T15:12:12;8.80;;;4.40;;
19030;SDS011;9648;51.130;13.978;2023-11-21T15:15:15;9.67;;;4.43;;
19030;SDS011;9648;51.130;13.978;2023-11-21T15:18:18;9.47;;;4.37;;
19030;SDS011;9648;51.130;13.978;2023-11-21T15:21:20;12.90;;;4.27;;
19030;SDS011;9648;51.130;13.978;2023-11-21T15:24:24;6.93;;;3.70;;
19030;SDS011;9648;51.130;13.978;2023-11-21T15:27:25;10.17;;;4.10;;
19030;SDS011;9648;51.130;13.978;2023-11-21T15:30:27;7.23;;;4.00;;
19030;SDS011;9648;51.130;13.978;2023-11-21T15:33:31;8.60;;;4.13;;
19030;SDS011;9648;51.130;13.978;2023-11-21T15:36:33;8.00;;;3.40;;
19030;SDS011;9648;51.130;13.978;2023-11-21T15:39:36;8.70;;;3.63;;
19030;SDS011;9648;51.130;13.978;2023-11-21T15:42:39;5.93;;;3.10;;
19030;SDS011;9648;51.130;13.978;2023-11-21T15:45:43;4.23;;;2.53;;
19030;SDS011;9648;51.130;13.978;2023-11-21T15:48:44;5.47;;;3.10;;
19030;SDS011;9648;51.130;13.978;2023-11-21T15:51:50;5.50;;;2.67;;
19030;SDS011;9648;51.130;13.978;2023-11-21T15:54:57;3.73;;;2.30;;
19030;SDS011;9648;51.130;13.978;2023-11-21T15:57:58;3.53;;;2.00;;
19030;SDS011;9648;51.130;13.978;2023-11-21T16:01:04;3.67;;;1.90;;
19030;SDS011;9648;51.130;13.978;2023-11-21T16:04:06;2.90;;;1.80;;
19030;SDS011;9648;51.130;13.978;2023-11-21T16:07:08;3.30;;;1.90;;
19030;SDS011;9648;51.130;13.978;2023-11-21T16:10:12;4.17;;;1.77;;
19030;SDS011;9648;51.130;13.978;2023-11-21T16:13:15;2.93;;;1.50;;
19030;SDS011;9648;51.130;13.978;2023-11-21T16:16:20;2.00;;;1.50;;
19030;SDS011;9648;51.130;13.978;2023-11-21T16:19:23;2.47;;;1.30;;
19030;SDS011;9648;51.130;13.978;2023-11-21T16:22:24;1.60;;;1.20;;
19030;SDS011;9648;51.130;13.978;2023-11-21T16:25:29;6.00;;;2.40;;
19030;SDS011;9648;51.130;13.978;2023-11-21T16:28:32;6.33;;;2.57;;
19030;SDS011;9648;51.130;13.978;2023-11-21T16:31:33;2.97;;;2.10;;
19030;SDS011;9648;51.130;13.978;2023-11-21T16:34:35;3.17;;;1.90;;
19030;SDS011;9648;51.130;13.978;2023-11-21T16:37:36;2.63;;;1.37;;
19030;SDS011;9648;51.130;13.978;2023-11-21T16:40:40;3.00;;;1.60;;
19030;SDS011;9648;51.130;13.978;2023-11-21T16:43:42;2.77;;;1.57;;
19030;SDS011;9648;51.130;13.978;2023-11-21T16:46:44;2.67;;;1.50;;
19030;SDS011;9648;51.130;13.978;2023-11-21T16:49:47;3.27;;;1.90;;
19030;SDS011;9648;51.130;13.978;2023-11-21T16:52:49;2.43;;;1.80;;
19030;SDS011;9648;51.130;13.978;2023-11-21T16:55:52;4.63;;;2.20;;
19030;SDS011;9648;51.130;13.978;2023-11-21T16:58:54;3.13;;;2.17;;
19030;SDS011;9648;51.130;13.978;2023-11-21T17:01:58;2.90;;;1.93;;
19030;SDS011;9648;51.130;13.978;2023-11-21T17:05:05;3.13;;;1.93;;
19030;SDS011;9648;51.130;13.978;2023-11-21T17:08:20;4.23;;;2.37;;
19030;SDS011;9648;51.130;13.978;2023-11-21T17:11:23;3.10;;;1.77;;
19030;SDS011;9648;51.130;13.978;2023-11-21T17:14:26;3.60;;;2.07;;
19030;SDS011;9648;51.130;13.978;2023-11-21T17:17:28;4.10;;;2.40;;
19030;SDS011;9648;51.130;13.978;2023-11-21T17:20:30;4.47;;;2.50;;
19030;SDS011;9648;51.130;13.978;2023-11-21T17:23:33;4.23;;;2.70;;
19030;SDS011;9648;51.130;13.978;2023-11-21T17:26:37;4.63;;;2.60;;
19030;SDS011;9648;51.130;13.978;2023-11-21T17:29:42;5.63;;;3.33;;
19030;SDS011;9648;51.130;13.978;2023-11-21T17:32:44;4.10;;;2.57;;
19030;SDS011;9648;51.130;13.978;2023-11-21T17:35:46;5.10;;;2.40;;
19030;SDS011;9648;51.130;13.978;2023-11-21T17:38:49;4.30;;;2.70;;
19030;SDS011;9648;51.130;13.978;2023-11-21T17:41:52;3.87;;;2.57;;
19030;SDS011;9648;51.130;13.978;2023-11-21T17:44:54;3.50;;;2.40;;
19030;SDS011;9648;51.130;13.978;2023-11-21T17:47:56;4.13;;;2.57;;
19030;SDS011;9648;51.130;13.978;2023-11-21T17:51:01;3.57;;;2.50;;
19030;SDS011;9648;51.130;13.978;2023-11-21T17:54:03;4.63;;;2.53;;
19030;SDS011;9648;51.130;13.978;2023-11-21T17:57:06;5.33;;;3.10;;
19030;SDS011;9648;51.130;13.978;2023-11-21T18:00:08;3.33;;;2.07;;
19030;SDS011;9648;51.130;13.978;2023-11-21T18:03:12;4.77;;;2.90;;
19030;SDS011;9648;51.130;13.978;2023-11-21T18:06:13;4.33;;;3.00;;
19030;SDS011;9648;51.130;13.978;2023-11-21T18:09:15;5.57;;;3.17;;
19030;SDS011;9648;51.130;13.978;2023-11-21T18:12:18;5.07;;;2.67;;
19030;SDS011;9648;51.130;13.978;2023-11-21T18:15:21;4.13;;;2.73;;
19030;SDS011;9648;51.130;13.978;2023-11-21T18:18:22;3.83;;;2.50;;
19030;SDS011;9648;51.130;13.978;2023-11-21T18:21:25;3.83;;;2.60;;
19030;SDS011;9648;51.130;13.978;2023-11-21T18:24:26;5.23;;;3.20;;
19030;SDS011;9648;51.130;13.978;2023-11-21T18:27:29;3.27;;;2.27;;
19030;SDS011;9648;51.130;13.978;2023-11-21T18:30:31;5.10;;;3.23;;
19030;SDS011;9648;51.130;13.978;2023-11-21T18:33:33;4.17;;;2.83;;
19030;SDS011;9648;51.130;13.978;2023-11-21T18:36:35;4.80;;;2.93;;
19030;SDS011;9648;51.130;13.978;2023-11-21T18:39:36;3.27;;;2.50;;
19030;SDS011;9648;51.130;13.978;2023-11-21T18:42:40;4.97;;;2.57;;
19030;SDS011;9648;51.130;13.978;2023-11-21T18:45:43;5.90;;;2.70;;
19030;SDS011;9648;51.130;13.978;2023-11-21T18:48:45;3.97;;;2.70;;
19030;SDS011;9648;51.130;13.978;2023-11-21T18:51:49;4.53;;;2.80;;
19030;SDS011;9648;51.130;13.978;2023-11-21T18:54:50;6.60;;;3.10;;
19030;SDS011;9648;51.130;13.978;2023-11-21T18:57:53;4.00;;;2.70;;
19030;SDS011;9648;51.130;13.978;2023-11-21T19:00:56;4.73;;;2.70;;
19030;SDS011;9648;51.130;13.978;2023-11-21T19:03:57;6.27;;;3.30;;
19030;SDS011;9648;51.130;13.978;2023-11-21T19:07:00;4.33;;;2.57;;
19030;SDS011;9648;51.130;13.978;2023-11-21T19:10:02;4.57;;;2.93;;
19030;SDS011;9648;51.130;13.978;2023-11-21T19:13:07;2.63;;;2.00;;
19030;SDS011;9648;51.130;13.978;2023-11-21T19:16:08;4.50;;;2.77;;
19030;SDS011;9648;51.130;13.978;2023-11-21T19:19:10;5.00;;;2.57;;
19030;SDS011;9648;51.130;13.978;2023-11-21T19:22:13;3.73;;;2.20;;
19030;SDS011;9648;51.130;13.978;2023-11-21T19:25:14;3.20;;;1.93;;
19030;SDS011;9648;51.130;13.978;2023-11-21T19:28:17;2.43;;;1.90;;
19030;SDS011;9648;51.130;13.978;2023-11-21T19:31:19;5.70;;;3.30;;
19030;SDS011;9648;51.130;13.978;2023-11-21T19:34:22;2.37;;;1.73;;
19030;SDS011;9648;51.130;13.978;2023-11-21T19:37:25;2.27;;;1.80;;
19030;SDS011;9648;51.130;13.978;2023-11-21T19:40:27;2.10;;;1.80;;
19030;SDS011;9648;51.130;13.978;2023-11-21T19:43:30;3.77;;;2.57;;
19030;SDS011;9648;51.130;13.978;2023-11-21T19:46:32;4.37;;;2.20;;
19030;SDS011;9648;51.130;13.978;2023-11-21T19:49:33;2.27;;;1.90;;
19030;SDS011;9648;51.130;13.978;2023-11-21T19:52:35;3.20;;;2.30;;
19030;SDS011;9648;51.130;13.978;2023-11-21T19:55:36;4.83;;;2.40;;
19030;SDS011;9648;51.130;13.978;2023-11-21T19:58:39;4.60;;;2.07;;
19030;SDS011;9648;51.130;13.978;2023-11-21T20:01:41;4.00;;;3.10;;
19030;SDS011;9648;51.130;13.978;2023-11-21T20:04:44;3.13;;;1.93;;
19030;SDS011;9648;51.130;13.978;2023-11-21T20:07:46;4.40;;;2.47;;
19030;SDS011;9648;51.130;13.978;2023-11-21T20:10:47;3.80;;;1.67;;
19030;SDS011;9648;51.130;13.978;2023-11-21T20:13:50;3.23;;;2.03;;
19030;SDS011;9648;51.130;13.978;2023-11-21T20:16:52;3.00;;;2.20;;
19030;SDS011;9648;51.130;13.978;2023-11-21T20:19:55;4.20;;;2.70;;
19030;SDS011;9648;51.130;13.978;2023-11-21T20:22:57;4.30;;;2.80;;
19030;SDS011;9648;51.130;13.978;2023-11-21T20:25:58;4.30;;;3.00;;
19030;SDS011;9648;51.130;13.978;2023-11-21T20:29:02;4.43;;;2.80;;
19030;SDS011;9648;51.130;13.978;2023-11-21T20:32:04;4.13;;;2.50;;
19030;SDS011;9648;51.130;13.978;2023-11-21T20:35:06;4.23;;;2.33;;
19030;SDS011;9648;51.130;13.978;2023-11-21T20:38:10;8.63;;;5.47;;
19030;SDS011;9648;51.130;13.978;2023-11-21T20:41:13;5.70;;;2.73;;
19030;SDS011;9648;51.130;13.978;2023-11-21T20:44:16;4.10;;;3.00;;
19030;SDS011;9648;51.130;13.978;2023-11-21T20:47:18;5.47;;;3.40;;
19030;SDS011;9648;51.130;13.978;2023-11-21T20:50:20;5.33;;;3.57;;
19030;SDS011;9648;51.130;13.978;2023-11-21T20:53:22;10.20;;;3.60;;
19030;SDS011;9648;51.130;13.978;2023-11-21T20:56:24;5.40;;;3.33;;
19030;SDS011;9648;51.130;13.978;2023-11-21T20:59:27;6.87;;;4.03;;
19030;SDS011;9648;51.130;13.978;2023-11-21T21:02:28;6.90;;;4.50;;
19030;SDS011;9648;51.130;13.978;2023-11-21T21:05:30;4.50;;;3.07;;
19030;SDS011;9648;51.130;13.978;2023-11-21T21:08:32;6.03;;;3.60;;
19030;SDS011;9648;51.130;13.978;2023-11-21T21:11:33;5.20;;;3.43;;
19030;SDS011;9648;51.130;13.978;2023-11-21T21:14:37;7.13;;;4.40;;
19030;SDS011;9648;51.130;13.978;2023-11-21T21:17:38;6.50;;;4.07;;
19030;SDS011;9648;51.130;13.978;2023-11-21T21:20:41;5.53;;;3.30;;
19030;SDS011;9648;51.130;13.978;2023-11-21T21:23:42;9.27;;;4.70;;
19030;SDS011;9648;51.130;13.978;2023-11-21T21:26:44;8.70;;;5.10;;
19030;SDS011;9648;51.130;13.978;2023-11-21T21:29:47;8.27;;;4.80;;
19030;SDS011;9648;51.130;13.978;2023-11-21T21:32:49;15.80;;;8.00;;
19030;SDS011;9648;51.130;13.978;2023-11-21T21:35:50;7.57;;;4.70;;
19030;SDS011;9648;51.130;13.978;2023-11-21T21:38:52;7.00;;;4.40;;
19030;SDS011;9648;51.130;13.978;2023-11-21T21:41:54;8.37;;;4.57;;
19030;SDS011;9648;51.130;13.978;2023-11-21T21:44:56;10.57;;;5.63;;
19030;SDS011;9648;51.130;13.978;2023-11-21T21:47:58;9.77;;;6.03;;
19030;SDS011;9648;51.130;13.978;2023-11-21T21:51:00;11.37;;;6.50;;
19030;SDS011;9648;51.130;13.978;2023-11-21T21:54:01;9.47;;;6.07;;
19030;SDS011;9648;51.130;13.978;2023-11-21T21:57:05;11.40;;;6.80;;
19030;SDS011;9648;51.130;13.978;2023-11-21T22:00:09;11.47;;;6.63;;
19030;SDS011;9648;51.130;13.978;2023-11-21T22:03:13;9.97;;;6.13;;
19030;SDS011;9648;51.130;13.978;2023-11-21T22:06:15;10.20;;;5.90;;
19030;SDS011;9648;51.130;13.978;2023-11-21T22:09:16;12.30;;;6.67;;
19030;SDS011;9648;51.130;13.978;2023-11-21T22:12:19;10.17;;;6.43;;
19030;SDS011;9648;51.130;13.978;2023-11-21T22:15:22;11.13;;;6.10;;
19030;SDS011;9648;51.130;13.978;2023-11-21T22:18:23;11.10;;;6.00;;
19030;SDS011;9648;51.130;13.978;2023-11-21T22:21:25;10.93;;;6.50;;
19030;SDS011;9648;51.130;13.978;2023-11-21T22:24:27;11.77;;;6.67;;
19030;SDS011;9648;51.130;13.978;2023-11-21T22:27:33;12.30;;;6.93;;